sensor_id;sensor_type;location;lat;lon;timestamp;temperature;humidity
7218;DHT22;3650;53.580;10.094;2023-08-24T00:00:16;21.20;79.80
7218;DHT22;3650;53.580;10.094;2023-08-24T00:02:43;21.20;80.20
7218;DHT22;3650;53.580;10.094;2023-08-24T00:05:10;21.20;80.20
7218;DHT22;3650;53.580;10.094;2023-08-24T00:07:38;21.20;80.40
7218;DHT22;3650;53.580;10.094;2023-08-24T00:10:06;21.10;80.40
7218;DHT22;3650;53.580;10.094;2023-08-24T00:12:33;21.10;80.30
7218;DHT22;3650;53.580;10.094;2023-08-24T00:15:03;21.10;80.70
7218;DHT22;3650;53.580;10.094;2023-08-24T00:17:29;21.10;80.10
7218;DHT22;3650;53.580;10.094;2023-08-24T00:19:56;21.10;80.90
7218;DHT22;3650;53.580;10.094;2023-08-24T00:22:23;21.10;82.30
7218;DHT22;3650;53.580;10.094;2023-08-24T00:24:50;21.10;82.90
7218;DHT22;3650;53.580;10.094;2023-08-24T00:27:17;21.10;82.90
7218;DHT22;3650;53.580;10.094;2023-08-24T00:29:44;21.00;82.90
7218;DHT22;3650;53.580;10.094;2023-08-24T00:32:12;21.00;82.80
7218;DHT22;3650;53.580;10.094;2023-08-24T00:34:38;21.00;82.80
7218;DHT22;3650;53.580;10.094;2023-08-24T00:37:05;21.00;83.80
7218;DHT22;3650;53.580;10.094;2023-08-24T00:39:32;21.00;83.80
7218;DHT22;3650;53.580;10.094;2023-08-24T00:41:59;21.00;82.80
7218;DHT22;3650;53.580;10.094;2023-08-24T00:44:25;21.00;85.00
7218;DHT22;3650;53.580;10.094;2023-08-24T00:46:53;21.00;86.80
7218;DHT22;3650;53.580;10.094;2023-08-24T00:49:21;21.00;86.90
7218;DHT22;3650;53.580;10.094;2023-08-24T00:51:48;21.00;86.00
7218;DHT22;3650;53.580;10.094;2023-08-24T00:54:15;21.00;86.80
7218;DHT22;3650;53.580;10.094;2023-08-24T00:56:43;21.00;88.10
7218;DHT22;3650;53.580;10.094;2023-08-24T00:59:10;20.90;87.60
7218;DHT22;3650;53.580;10.094;2023-08-24T01:01:39;20.90;87.90
7218;DHT22;3650;53.580;10.094;2023-08-24T01:04:08;20.90;86.60
7218;DHT22;3650;53.580;10.094;2023-08-24T01:06:37;20.90;87.00
7218;DHT22;3650;53.580;10.094;2023-08-24T01:09:05;20.90;88.30
7218;DHT22;3650;53.580;10.094;2023-08-24T01:11:58;20.90;89.90
7218;DHT22;3650;53.580;10.094;2023-08-24T01:14:33;20.80;89.10
7218;DHT22;3650;53.580;10.094;2023-08-24T01:17:04;20.80;89.70
7218;DHT22;3650;53.580;10.094;2023-08-24T01:19:38;20.80;90.20
7218;DHT22;3650;53.580;10.094;2023-08-24T01:22:11;20.80;90.80
7218;DHT22;3650;53.580;10.094;2023-08-24T01:24:46;20.80;91.10
7218;DHT22;3650;53.580;10.094;2023-08-24T01:27:15;20.80;91.10
7218;DHT22;3650;53.580;10.094;2023-08-24T01:29:42;20.70;91.40
7218;DHT22;3650;53.580;10.094;2023-08-24T01:32:10;20.70;91.10
7218;DHT22;3650;53.580;10.094;2023-08-24T01:34:38;20.70;90.80
7218;DHT22;3650;53.580;10.094;2023-08-24T01:37:05;20.70;90.50
7218;DHT22;3650;53.580;10.094;2023-08-24T01:39:40;20.70;90.20
7218;DHT22;3650;53.580;10.094;2023-08-24T01:42:10;20.70;90.10
7218;DHT22;3650;53.580;10.094;2023-08-24T01:44:47;20.70;90.30
7218;DHT22;3650;53.580;10.094;2023-08-24T01:47:17;20.70;90.30
7218;DHT22;3650;53.580;10.094;2023-08-24T01:49:44;20.70;90.20
7218;DHT22;3650;53.580;10.094;2023-08-24T01:52:12;20.60;90.20
7218;DHT22;3650;53.580;10.094;2023-08-24T01:54:39;20.60;90.20
7218;DHT22;3650;53.580;10.094;2023-08-24T01:57:06;20.50;90.30
7218;DHT22;3650;53.580;10.094;2023-08-24T01:59:33;20.50;90.30
7218;DHT22;3650;53.580;10.094;2023-08-24T02:02:02;20.50;90.00
7218;DHT22;3650;53.580;10.094;2023-08-24T02:04:29;20.50;90.30
7218;DHT22;3650;53.580;10.094;2023-08-24T02:06:56;20.50;90.80
7218;DHT22;3650;53.580;10.094;2023-08-24T02:09:22;20.50;91.10
7218;DHT22;3650;53.580;10.094;2023-08-24T02:11:49;20.40;91.40
7218;DHT22;3650;53.580;10.094;2023-08-24T02:14:16;20.40;91.60
7218;DHT22;3650;53.580;10.094;2023-08-24T02:16:43;20.40;91.70
7218;DHT22;3650;53.580;10.094;2023-08-24T02:19:11;20.40;91.80
7218;DHT22;3650;53.580;10.094;2023-08-24T02:21:38;20.30;91.80
7218;DHT22;3650;53.580;10.094;2023-08-24T02:24:05;20.30;91.80
7218;DHT22;3650;53.580;10.094;2023-08-24T02:26:32;20.30;91.60
7218;DHT22;3650;53.580;10.094;2023-08-24T02:28:59;20.30;91.70
7218;DHT22;3650;53.580;10.094;2023-08-24T02:31:26;20.20;91.70
7218;DHT22;3650;53.580;10.094;2023-08-24T02:33:53;20.20;91.80
7218;DHT22;3650;53.580;10.094;2023-08-24T02:36:21;20.20;91.70
7218;DHT22;3650;53.580;10.094;2023-08-24T02:38:48;20.20;91.80
7218;DHT22;3650;53.580;10.094;2023-08-24T02:41:14;20.10;91.90
7218;DHT22;3650;53.580;10.094;2023-08-24T02:43:41;20.10;92.00
7218;DHT22;3650;53.580;10.094;2023-08-24T02:46:08;20.10;91.90
7218;DHT22;3650;53.580;10.094;2023-08-24T02:48:36;20.10;91.90
7218;DHT22;3650;53.580;10.094;2023-08-24T02:51:04;20.00;92.20
7218;DHT22;3650;53.580;10.094;2023-08-24T02:53:33;20.00;92.00
7218;DHT22;3650;53.580;10.094;2023-08-24T02:55:59;20.00;92.10
7218;DHT22;3650;53.580;10.094;2023-08-24T02:58:26;20.00;92.30
7218;DHT22;3650;53.580;10.094;2023-08-24T03:00:53;19.90;92.40
7218;DHT22;3650;53.580;10.094;2023-08-24T03:03:20;20.00;92.30
7218;DHT22;3650;53.580;10.094;2023-08-24T03:05:55;19.90;92.30
7218;DHT22;3650;53.580;10.094;2023-08-24T03:08:22;19.90;92.40
7218;DHT22;3650;53.580;10.094;2023-08-24T03:10:50;19.90;92.90
7218;DHT22;3650;53.580;10.094;2023-08-24T03:13:17;19.90;93.00
7218;DHT22;3650;53.580;10.094;2023-08-24T03:15:44;19.90;93.10
7218;DHT22;3650;53.580;10.094;2023-08-24T03:18:12;19.90;92.90
7218;DHT22;3650;53.580;10.094;2023-08-24T03:20:39;19.90;92.90
7218;DHT22;3650;53.580;10.094;2023-08-24T03:23:06;19.80;92.50
7218;DHT22;3650;53.580;10.094;2023-08-24T03:25:36;19.80;92.70
7218;DHT22;3650;53.580;10.094;2023-08-24T03:28:05;19.80;92.70
7218;DHT22;3650;53.580;10.094;2023-08-24T03:30:34;19.80;93.00
7218;DHT22;3650;53.580;10.094;2023-08-24T03:33:01;19.70;92.90
7218;DHT22;3650;53.580;10.094;2023-08-24T03:35:28;19.70;93.10
7218;DHT22;3650;53.580;10.094;2023-08-24T03:37:55;19.70;93.50
7218;DHT22;3650;53.580;10.094;2023-08-24T03:40:22;19.70;93.10
7218;DHT22;3650;53.580;10.094;2023-08-24T03:42:49;19.70;93.00
7218;DHT22;3650;53.580;10.094;2023-08-24T03:45:17;19.70;93.00
7218;DHT22;3650;53.580;10.094;2023-08-24T03:47:44;19.60;93.10
7218;DHT22;3650;53.580;10.094;2023-08-24T03:50:11;19.60;93.10
7218;DHT22;3650;53.580;10.094;2023-08-24T03:52:38;19.60;93.30
7218;DHT22;3650;53.580;10.094;2023-08-24T03:55:05;19.60;93.50
7218;DHT22;3650;53.580;10.094;2023-08-24T03:57:32;19.60;93.50
7218;DHT22;3650;53.580;10.094;2023-08-24T03:59:59;19.50;93.50
7218;DHT22;3650;53.580;10.094;2023-08-24T04:02:28;19.50;93.40
7218;DHT22;3650;53.580;10.094;2023-08-24T04:04:54;19.50;93.50
7218;DHT22;3650;53.580;10.094;2023-08-24T04:07:21;19.50;93.60
7218;DHT22;3650;53.580;10.094;2023-08-24T04:09:48;19.50;93.70
7218;DHT22;3650;53.580;10.094;2023-08-24T04:12:15;19.50;93.80
7218;DHT22;3650;53.580;10.094;2023-08-24T04:14:42;19.40;93.80
7218;DHT22;3650;53.580;10.094;2023-08-24T04:17:08;19.40;93.60
7218;DHT22;3650;53.580;10.094;2023-08-24T04:19:39;19.40;93.60
7218;DHT22;3650;53.580;10.094;2023-08-24T04:22:05;19.40;93.60
7218;DHT22;3650;53.580;10.094;2023-08-24T04:24:32;19.40;93.80
7218;DHT22;3650;53.580;10.094;2023-08-24T04:26:59;19.40;93.80
7218;DHT22;3650;53.580;10.094;2023-08-24T04:29:26;19.30;93.90
7218;DHT22;3650;53.580;10.094;2023-08-24T04:31:53;19.30;94.00
7218;DHT22;3650;53.580;10.094;2023-08-24T04:34:20;19.30;94.20
7218;DHT22;3650;53.580;10.094;2023-08-24T04:36:48;19.30;94.20
7218;DHT22;3650;53.580;10.094;2023-08-24T04:39:15;19.30;94.20
7218;DHT22;3650;53.580;10.094;2023-08-24T04:41:43;19.20;94.20
7218;DHT22;3650;53.580;10.094;2023-08-24T04:44:10;19.20;94.20
7218;DHT22;3650;53.580;10.094;2023-08-24T04:46:37;19.20;94.10
7218;DHT22;3650;53.580;10.094;2023-08-24T04:49:04;19.20;94.00
7218;DHT22;3650;53.580;10.094;2023-08-24T04:51:30;19.20;94.20
7218;DHT22;3650;53.580;10.094;2023-08-24T04:53:59;19.20;94.20
7218;DHT22;3650;53.580;10.094;2023-08-24T04:56:25;19.20;94.30
7218;DHT22;3650;53.580;10.094;2023-08-24T04:58:53;19.20;94.50
7218;DHT22;3650;53.580;10.094;2023-08-24T05:01:20;19.20;94.50
7218;DHT22;3650;53.580;10.094;2023-08-24T05:03:47;19.10;94.60
7218;DHT22;3650;53.580;10.094;2023-08-24T05:06:14;19.10;94.80
7218;DHT22;3650;53.580;10.094;2023-08-24T05:08:41;19.10;94.80
7218;DHT22;3650;53.580;10.094;2023-08-24T05:11:13;19.10;95.00
7218;DHT22;3650;53.580;10.094;2023-08-24T05:13:40;19.10;94.90
7218;DHT22;3650;53.580;10.094;2023-08-24T05:16:07;19.10;95.00
7218;DHT22;3650;53.580;10.094;2023-08-24T05:18:34;19.10;95.20
7218;DHT22;3650;53.580;10.094;2023-08-24T05:21:02;19.10;95.40
7218;DHT22;3650;53.580;10.094;2023-08-24T05:23:28;19.10;95.80
7218;DHT22;3650;53.580;10.094;2023-08-24T05:25:56;19.10;95.70
7218;DHT22;3650;53.580;10.094;2023-08-24T05:28:24;19.10;95.70
7218;DHT22;3650;53.580;10.094;2023-08-24T05:30:51;19.10;96.00
7218;DHT22;3650;53.580;10.094;2023-08-24T05:33:18;19.10;96.00
7218;DHT22;3650;53.580;10.094;2023-08-24T05:35:45;19.10;96.00
7218;DHT22;3650;53.580;10.094;2023-08-24T05:38:12;19.10;96.20
7218;DHT22;3650;53.580;10.094;2023-08-24T05:40:42;19.10;96.30
7218;DHT22;3650;53.580;10.094;2023-08-24T05:43:09;19.10;96.10
7218;DHT22;3650;53.580;10.094;2023-08-24T05:45:37;19.10;96.40
7218;DHT22;3650;53.580;10.094;2023-08-24T05:48:06;19.10;96.30
7218;DHT22;3650;53.580;10.094;2023-08-24T05:50:33;19.10;96.50
7218;DHT22;3650;53.580;10.094;2023-08-24T05:53:00;19.10;96.60
7218;DHT22;3650;53.580;10.094;2023-08-24T05:55:27;19.10;96.50
7218;DHT22;3650;53.580;10.094;2023-08-24T05:57:54;19.20;96.70
7218;DHT22;3650;53.580;10.094;2023-08-24T06:00:20;19.20;96.90
7218;DHT22;3650;53.580;10.094;2023-08-24T06:02:49;19.20;96.90
7218;DHT22;3650;53.580;10.094;2023-08-24T06:05:16;19.20;96.80
7218;DHT22;3650;53.580;10.094;2023-08-24T06:07:43;19.20;96.80
7218;DHT22;3650;53.580;10.094;2023-08-24T06:10:11;19.20;96.90
7218;DHT22;3650;53.580;10.094;2023-08-24T06:12:38;19.20;97.10
7218;DHT22;3650;53.580;10.094;2023-08-24T06:15:05;19.30;97.30
7218;DHT22;3650;53.580;10.094;2023-08-24T06:17:35;19.30;96.90
7218;DHT22;3650;53.580;10.094;2023-08-24T06:20:04;19.30;96.40
7218;DHT22;3650;53.580;10.094;2023-08-24T06:22:31;19.30;96.50
7218;DHT22;3650;53.580;10.094;2023-08-24T06:24:58;19.40;96.40
7218;DHT22;3650;53.580;10.094;2023-08-24T06:27:25;19.40;96.30
7218;DHT22;3650;53.580;10.094;2023-08-24T06:29:52;19.40;96.20
7218;DHT22;3650;53.580;10.094;2023-08-24T06:32:19;19.40;96.00
7218;DHT22;3650;53.580;10.094;2023-08-24T06:34:46;19.40;95.70
7218;DHT22;3650;53.580;10.094;2023-08-24T06:37:14;19.40;95.20
7218;DHT22;3650;53.580;10.094;2023-08-24T06:39:41;19.40;95.60
7218;DHT22;3650;53.580;10.094;2023-08-24T06:42:08;19.50;96.10
7218;DHT22;3650;53.580;10.094;2023-08-24T06:44:35;19.50;95.80
7218;DHT22;3650;53.580;10.094;2023-08-24T06:47:02;19.50;95.90
7218;DHT22;3650;53.580;10.094;2023-08-24T06:49:29;19.50;95.80
7218;DHT22;3650;53.580;10.094;2023-08-24T06:51:55;19.50;95.40
7218;DHT22;3650;53.580;10.094;2023-08-24T06:54:24;19.60;95.00
7218;DHT22;3650;53.580;10.094;2023-08-24T06:56:50;19.60;94.30
7218;DHT22;3650;53.580;10.094;2023-08-24T06:59:17;19.60;94.30
7218;DHT22;3650;53.580;10.094;2023-08-24T07:01:44;19.60;94.30
7218;DHT22;3650;53.580;10.094;2023-08-24T07:04:12;19.60;94.30
7218;DHT22;3650;53.580;10.094;2023-08-24T07:06:39;19.70;94.00
7218;DHT22;3650;53.580;10.094;2023-08-24T07:09:08;19.70;94.00
7218;DHT22;3650;53.580;10.094;2023-08-24T07:11:36;19.80;94.10
7218;DHT22;3650;53.580;10.094;2023-08-24T07:14:03;19.80;93.80
7218;DHT22;3650;53.580;10.094;2023-08-24T07:16:30;19.80;93.70
7218;DHT22;3650;53.580;10.094;2023-08-24T07:18:57;19.80;93.70
7218;DHT22;3650;53.580;10.094;2023-08-24T07:21:24;19.90;92.90
7218;DHT22;3650;53.580;10.094;2023-08-24T07:23:51;19.90;92.60
7218;DHT22;3650;53.580;10.094;2023-08-24T07:26:18;19.90;92.40
7218;DHT22;3650;53.580;10.094;2023-08-24T07:28:46;20.00;92.40
7218;DHT22;3650;53.580;10.094;2023-08-24T07:31:13;20.00;92.50
7218;DHT22;3650;53.580;10.094;2023-08-24T07:33:40;20.00;92.20
7218;DHT22;3650;53.580;10.094;2023-08-24T07:36:09;20.00;92.40
7218;DHT22;3650;53.580;10.094;2023-08-24T07:38:36;20.10;92.20
7218;DHT22;3650;53.580;10.094;2023-08-24T07:41:03;20.10;92.10
7218;DHT22;3650;53.580;10.094;2023-08-24T07:43:29;20.10;92.30
7218;DHT22;3650;53.580;10.094;2023-08-24T07:45:58;20.10;92.20
7218;DHT22;3650;53.580;10.094;2023-08-24T07:48:25;20.20;92.20
7218;DHT22;3650;53.580;10.094;2023-08-24T07:50:52;20.20;92.20
7218;DHT22;3650;53.580;10.094;2023-08-24T07:53:19;20.20;92.40
7218;DHT22;3650;53.580;10.094;2023-08-24T07:55:46;20.20;92.10
7218;DHT22;3650;53.580;10.094;2023-08-24T07:58:13;20.20;91.70
7218;DHT22;3650;53.580;10.094;2023-08-24T08:00:40;20.30;92.20
7218;DHT22;3650;53.580;10.094;2023-08-24T08:03:08;20.30;92.00
7218;DHT22;3650;53.580;10.094;2023-08-24T08:05:35;20.30;91.00
7218;DHT22;3650;53.580;10.094;2023-08-24T08:08:03;20.30;90.70
7218;DHT22;3650;53.580;10.094;2023-08-24T08:10:30;20.30;90.30
7218;DHT22;3650;53.580;10.094;2023-08-24T08:12:57;20.30;90.10
7218;DHT22;3650;53.580;10.094;2023-08-24T08:15:24;20.30;89.70
7218;DHT22;3650;53.580;10.094;2023-08-24T08:17:51;20.30;89.60
7218;DHT22;3650;53.580;10.094;2023-08-24T08:20:19;20.30;89.40
7218;DHT22;3650;53.580;10.094;2023-08-24T08:22:46;20.40;88.50
7218;DHT22;3650;53.580;10.094;2023-08-24T08:25:13;20.40;88.30
7218;DHT22;3650;53.580;10.094;2023-08-24T08:27:39;20.40;88.20
7218;DHT22;3650;53.580;10.094;2023-08-24T08:30:07;20.40;88.10
7218;DHT22;3650;53.580;10.094;2023-08-24T08:32:34;20.50;86.80
7218;DHT22;3650;53.580;10.094;2023-08-24T08:35:00;20.50;86.50
7218;DHT22;3650;53.580;10.094;2023-08-24T08:37:31;20.50;87.60
7218;DHT22;3650;53.580;10.094;2023-08-24T08:39:58;20.60;88.50
7218;DHT22;3650;53.580;10.094;2023-08-24T08:42:25;20.60;88.80
7218;DHT22;3650;53.580;10.094;2023-08-24T08:44:53;20.60;87.90
7218;DHT22;3650;53.580;10.094;2023-08-24T08:47:21;20.60;86.40
7218;DHT22;3650;53.580;10.094;2023-08-24T08:49:48;20.70;85.10
7218;DHT22;3650;53.580;10.094;2023-08-24T08:52:15;20.70;84.70
7218;DHT22;3650;53.580;10.094;2023-08-24T08:54:43;20.80;85.30
7218;DHT22;3650;53.580;10.094;2023-08-24T08:57:10;20.80;84.60
7218;DHT22;3650;53.580;10.094;2023-08-24T08:59:37;20.90;84.40
7218;DHT22;3650;53.580;10.094;2023-08-24T09:02:06;20.90;84.10
7218;DHT22;3650;53.580;10.094;2023-08-24T09:04:35;20.90;81.30
7218;DHT22;3650;53.580;10.094;2023-08-24T09:07:02;21.00;81.20
7218;DHT22;3650;53.580;10.094;2023-08-24T09:09:33;21.00;81.40
7218;DHT22;3650;53.580;10.094;2023-08-24T09:12:04;21.00;81.20
7218;DHT22;3650;53.580;10.094;2023-08-24T09:14:31;21.10;80.50
7218;DHT22;3650;53.580;10.094;2023-08-24T09:16:59;21.10;80.20
7218;DHT22;3650;53.580;10.094;2023-08-24T09:19:28;21.10;79.40
7218;DHT22;3650;53.580;10.094;2023-08-24T09:21:57;21.20;80.20
7218;DHT22;3650;53.580;10.094;2023-08-24T09:24:29;21.20;81.40
7218;DHT22;3650;53.580;10.094;2023-08-24T09:26:57;21.30;81.40
7218;DHT22;3650;53.580;10.094;2023-08-24T09:29:26;21.30;80.40
7218;DHT22;3650;53.580;10.094;2023-08-24T09:31:54;21.30;79.10
7218;DHT22;3650;53.580;10.094;2023-08-24T09:34:24;21.40;77.20
7218;DHT22;3650;53.580;10.094;2023-08-24T09:36:52;21.40;75.00
7218;DHT22;3650;53.580;10.094;2023-08-24T09:39:20;21.40;75.10
7218;DHT22;3650;53.580;10.094;2023-08-24T09:41:50;21.50;75.40
7218;DHT22;3650;53.580;10.094;2023-08-24T09:44:17;21.50;75.90
7218;DHT22;3650;53.580;10.094;2023-08-24T09:46:46;21.60;76.80
7218;DHT22;3650;53.580;10.094;2023-08-24T09:49:13;21.60;76.80
7218;DHT22;3650;53.580;10.094;2023-08-24T09:51:41;21.60;76.50
7218;DHT22;3650;53.580;10.094;2023-08-24T09:54:10;21.70;75.60
7218;DHT22;3650;53.580;10.094;2023-08-24T09:56:39;21.70;74.60
7218;DHT22;3650;53.580;10.094;2023-08-24T09:59:11;21.70;73.80
7218;DHT22;3650;53.580;10.094;2023-08-24T10:01:41;21.70;73.00
7218;DHT22;3650;53.580;10.094;2023-08-24T10:04:10;21.80;72.90
7218;DHT22;3650;53.580;10.094;2023-08-24T10:06:39;21.80;73.00
7218;DHT22;3650;53.580;10.094;2023-08-24T10:09:08;21.90;73.20
7218;DHT22;3650;53.580;10.094;2023-08-24T10:11:42;22.00;74.40
7218;DHT22;3650;53.580;10.094;2023-08-24T10:14:15;22.00;74.40
7218;DHT22;3650;53.580;10.094;2023-08-24T10:16:43;22.00;72.50
7218;DHT22;3650;53.580;10.094;2023-08-24T10:19:13;22.00;72.70
7218;DHT22;3650;53.580;10.094;2023-08-24T10:21:40;22.10;72.90
7218;DHT22;3650;53.580;10.094;2023-08-24T10:24:09;22.10;72.50
7218;DHT22;3650;53.580;10.094;2023-08-24T10:26:36;22.10;72.40
7218;DHT22;3650;53.580;10.094;2023-08-24T10:29:05;22.20;70.90
7218;DHT22;3650;53.580;10.094;2023-08-24T10:31:33;22.20;70.80
7218;DHT22;3650;53.580;10.094;2023-08-24T10:34:04;22.30;70.90
7218;DHT22;3650;53.580;10.094;2023-08-24T10:36:33;22.30;71.20
7218;DHT22;3650;53.580;10.094;2023-08-24T10:39:03;22.40;72.20
7218;DHT22;3650;53.580;10.094;2023-08-24T10:41:46;22.40;71.50
7218;DHT22;3650;53.580;10.094;2023-08-24T10:44:20;22.50;72.30
7218;DHT22;3650;53.580;10.094;2023-08-24T10:47:11;22.50;72.90
7218;DHT22;3650;53.580;10.094;2023-08-24T10:49:39;22.60;72.80
7218;DHT22;3650;53.580;10.094;2023-08-24T10:52:23;22.60;71.80
7218;DHT22;3650;53.580;10.094;2023-08-24T10:54:51;22.70;71.60
7218;DHT22;3650;53.580;10.094;2023-08-24T10:57:20;22.70;73.10
7218;DHT22;3650;53.580;10.094;2023-08-24T10:59:58;22.70;73.20
7218;DHT22;3650;53.580;10.094;2023-08-24T11:02:25;22.80;74.00
7218;DHT22;3650;53.580;10.094;2023-08-24T11:05:15;22.90;75.00
7218;DHT22;3650;53.580;10.094;2023-08-24T11:07:52;22.90;73.30
7218;DHT22;3650;53.580;10.094;2023-08-24T11:10:20;23.00;70.20
7218;DHT22;3650;53.580;10.094;2023-08-24T11:13:12;23.00;68.40
7218;DHT22;3650;53.580;10.094;2023-08-24T11:15:41;23.10;71.20
7218;DHT22;3650;53.580;10.094;2023-08-24T11:18:12;23.10;72.60
7218;DHT22;3650;53.580;10.094;2023-08-24T11:20:42;23.10;72.90
7218;DHT22;3650;53.580;10.094;2023-08-24T11:23:10;23.20;71.60
7218;DHT22;3650;53.580;10.094;2023-08-24T11:25:37;23.20;70.20
7218;DHT22;3650;53.580;10.094;2023-08-24T11:28:05;23.20;68.70
7218;DHT22;3650;53.580;10.094;2023-08-24T11:30:32;23.30;66.30
7218;DHT22;3650;53.580;10.094;2023-08-24T11:32:59;23.30;65.20
7218;DHT22;3650;53.580;10.094;2023-08-24T11:35:26;23.30;61.60
7218;DHT22;3650;53.580;10.094;2023-08-24T11:37:53;23.40;61.70
7218;DHT22;3650;53.580;10.094;2023-08-24T11:40:22;23.40;61.90
7218;DHT22;3650;53.580;10.094;2023-08-24T11:42:53;23.40;63.10
7218;DHT22;3650;53.580;10.094;2023-08-24T11:45:21;23.50;62.20
7218;DHT22;3650;53.580;10.094;2023-08-24T11:47:48;23.50;61.70
7218;DHT22;3650;53.580;10.094;2023-08-24T11:50:15;23.50;60.60
7218;DHT22;3650;53.580;10.094;2023-08-24T11:52:43;23.50;61.10
7218;DHT22;3650;53.580;10.094;2023-08-24T11:55:10;23.60;61.80
7218;DHT22;3650;53.580;10.094;2023-08-24T11:57:38;23.60;61.80
7218;DHT22;3650;53.580;10.094;2023-08-24T12:00:16;23.70;61.90
7218;DHT22;3650;53.580;10.094;2023-08-24T12:02:43;23.70;62.60
7218;DHT22;3650;53.580;10.094;2023-08-24T12:05:20;23.70;65.50
7218;DHT22;3650;53.580;10.094;2023-08-24T12:07:48;23.80;65.00
7218;DHT22;3650;53.580;10.094;2023-08-24T12:10:14;23.80;63.30
7218;DHT22;3650;53.580;10.094;2023-08-24T12:12:43;23.80;62.00
7218;DHT22;3650;53.580;10.094;2023-08-24T12:15:15;23.80;62.00
7218;DHT22;3650;53.580;10.094;2023-08-24T12:17:43;23.80;61.90
7218;DHT22;3650;53.580;10.094;2023-08-24T12:20:18;23.90;62.10
7218;DHT22;3650;53.580;10.094;2023-08-24T12:22:50;23.90;64.90
7218;DHT22;3650;53.580;10.094;2023-08-24T12:25:17;23.90;66.00
7218;DHT22;3650;53.580;10.094;2023-08-24T12:27:46;24.00;62.20
7218;DHT22;3650;53.580;10.094;2023-08-24T12:30:13;24.00;60.10
7218;DHT22;3650;53.580;10.094;2023-08-24T12:32:43;24.00;61.30
7218;DHT22;3650;53.580;10.094;2023-08-24T12:35:10;24.00;62.20
7218;DHT22;3650;53.580;10.094;2023-08-24T12:37:37;24.10;64.10
7218;DHT22;3650;53.580;10.094;2023-08-24T12:40:05;24.10;62.20
7218;DHT22;3650;53.580;10.094;2023-08-24T12:42:32;24.10;62.30
7218;DHT22;3650;53.580;10.094;2023-08-24T12:45:00;24.10;63.10
7218;DHT22;3650;53.580;10.094;2023-08-24T12:47:27;24.10;62.30
7218;DHT22;3650;53.580;10.094;2023-08-24T12:49:54;24.20;62.40
7218;DHT22;3650;53.580;10.094;2023-08-24T12:52:22;24.20;62.30
7218;DHT22;3650;53.580;10.094;2023-08-24T12:54:49;24.20;62.30
7218;DHT22;3650;53.580;10.094;2023-08-24T12:57:16;24.20;62.10
7218;DHT22;3650;53.580;10.094;2023-08-24T12:59:43;24.20;61.20
7218;DHT22;3650;53.580;10.094;2023-08-24T13:02:11;24.20;61.70
7218;DHT22;3650;53.580;10.094;2023-08-24T13:04:37;24.30;60.60
7218;DHT22;3650;53.580;10.094;2023-08-24T13:07:04;24.20;59.20
7218;DHT22;3650;53.580;10.094;2023-08-24T13:09:31;24.30;60.00
7218;DHT22;3650;53.580;10.094;2023-08-24T13:11:58;24.30;61.50
7218;DHT22;3650;53.580;10.094;2023-08-24T13:14:24;24.30;62.40
7218;DHT22;3650;53.580;10.094;2023-08-24T13:16:51;24.30;61.40
7218;DHT22;3650;53.580;10.094;2023-08-24T13:19:19;24.40;60.90
7218;DHT22;3650;53.580;10.094;2023-08-24T13:21:46;24.40;61.00
7218;DHT22;3650;53.580;10.094;2023-08-24T13:24:13;24.40;60.00
7218;DHT22;3650;53.580;10.094;2023-08-24T13:26:40;24.50;55.90
7218;DHT22;3650;53.580;10.094;2023-08-24T13:29:06;24.50;55.60
7218;DHT22;3650;53.580;10.094;2023-08-24T13:31:33;24.50;56.60
7218;DHT22;3650;53.580;10.094;2023-08-24T13:34:01;24.50;55.70
7218;DHT22;3650;53.580;10.094;2023-08-24T13:36:31;24.50;57.20
7218;DHT22;3650;53.580;10.094;2023-08-24T13:38:58;24.50;57.00
7218;DHT22;3650;53.580;10.094;2023-08-24T13:41:25;24.50;56.70
7218;DHT22;3650;53.580;10.094;2023-08-24T13:43:51;24.60;58.10
7218;DHT22;3650;53.580;10.094;2023-08-24T13:46:18;24.60;58.60
7218;DHT22;3650;53.580;10.094;2023-08-24T13:48:45;24.60;60.40
7218;DHT22;3650;53.580;10.094;2023-08-24T13:51:12;24.60;60.70
7218;DHT22;3650;53.580;10.094;2023-08-24T13:53:40;24.60;59.80
7218;DHT22;3650;53.580;10.094;2023-08-24T13:56:06;24.60;59.30
7218;DHT22;3650;53.580;10.094;2023-08-24T13:58:34;24.60;59.80
7218;DHT22;3650;53.580;10.094;2023-08-24T14:01:01;24.60;60.60
7218;DHT22;3650;53.580;10.094;2023-08-24T14:03:28;24.60;60.40
7218;DHT22;3650;53.580;10.094;2023-08-24T14:05:55;24.60;59.60
7218;DHT22;3650;53.580;10.094;2023-08-24T14:08:22;24.60;59.10
7218;DHT22;3650;53.580;10.094;2023-08-24T14:10:51;24.60;59.00
7218;DHT22;3650;53.580;10.094;2023-08-24T14:13:18;24.60;59.30
7218;DHT22;3650;53.580;10.094;2023-08-24T14:15:47;24.50;59.00
7218;DHT22;3650;53.580;10.094;2023-08-24T14:18:14;24.50;59.20
7218;DHT22;3650;53.580;10.094;2023-08-24T14:20:42;24.50;59.40
7218;DHT22;3650;53.580;10.094;2023-08-24T14:23:09;24.50;59.40
7218;DHT22;3650;53.580;10.094;2023-08-24T14:25:36;24.50;60.10
7218;DHT22;3650;53.580;10.094;2023-08-24T14:28:05;24.50;60.70
7218;DHT22;3650;53.580;10.094;2023-08-24T14:30:31;24.50;60.10
7218;DHT22;3650;53.580;10.094;2023-08-24T14:32:58;24.50;59.40
7218;DHT22;3650;53.580;10.094;2023-08-24T14:35:26;24.50;60.00
7218;DHT22;3650;53.580;10.094;2023-08-24T14:37:53;24.50;60.20
7218;DHT22;3650;53.580;10.094;2023-08-24T14:40:20;24.50;59.90
7218;DHT22;3650;53.580;10.094;2023-08-24T14:42:46;24.50;59.70
7218;DHT22;3650;53.580;10.094;2023-08-24T14:45:16;24.50;59.20
7218;DHT22;3650;53.580;10.094;2023-08-24T14:47:45;24.50;58.80
7218;DHT22;3650;53.580;10.094;2023-08-24T14:50:12;24.50;58.80
7218;DHT22;3650;53.580;10.094;2023-08-24T14:52:39;24.50;59.30
7218;DHT22;3650;53.580;10.094;2023-08-24T14:55:07;24.50;57.90
7218;DHT22;3650;53.580;10.094;2023-08-24T14:57:35;24.50;56.90
7218;DHT22;3650;53.580;10.094;2023-08-24T15:02:32;24.50;56.20
7218;DHT22;3650;53.580;10.094;2023-08-24T15:04:59;24.50;56.00
7218;DHT22;3650;53.580;10.094;2023-08-24T15:07:25;24.50;56.70
7218;DHT22;3650;53.580;10.094;2023-08-24T15:09:52;24.60;57.50
7218;DHT22;3650;53.580;10.094;2023-08-24T15:12:20;24.60;57.60
7218;DHT22;3650;53.580;10.094;2023-08-24T15:14:57;24.60;57.50
7218;DHT22;3650;53.580;10.094;2023-08-24T15:17:24;24.50;56.30
7218;DHT22;3650;53.580;10.094;2023-08-24T15:19:54;24.60;55.50
7218;DHT22;3650;53.580;10.094;2023-08-24T15:22:21;24.60;55.30
7218;DHT22;3650;53.580;10.094;2023-08-24T15:24:47;24.60;55.10
7218;DHT22;3650;53.580;10.094;2023-08-24T15:27:14;24.60;55.60
7218;DHT22;3650;53.580;10.094;2023-08-24T15:29:41;24.60;55.90
7218;DHT22;3650;53.580;10.094;2023-08-24T15:32:09;24.60;57.10
7218;DHT22;3650;53.580;10.094;2023-08-24T15:34:35;24.60;57.60
7218;DHT22;3650;53.580;10.094;2023-08-24T15:37:04;24.60;57.80
7218;DHT22;3650;53.580;10.094;2023-08-24T15:39:35;24.60;58.20
7218;DHT22;3650;53.580;10.094;2023-08-24T15:42:03;24.60;59.00
7218;DHT22;3650;53.580;10.094;2023-08-24T15:44:31;24.60;58.90
7218;DHT22;3650;53.580;10.094;2023-08-24T15:46:58;24.60;59.10
7218;DHT22;3650;53.580;10.094;2023-08-24T15:49:24;24.60;59.80
7218;DHT22;3650;53.580;10.094;2023-08-24T15:51:52;24.60;59.30